createdAt,value
2023-04-22T00:01:58.629Z,8.77
2023-04-22T00:05:01.886Z,8.77
2023-04-22T00:08:04.930Z,8.62
2023-04-22T00:11:07.677Z,8.58
2023-04-22T00:14:10.408Z,8.69
2023-04-22T00:17:13.269Z,8.81
2023-04-22T00:20:16.975Z,8.71
2023-04-22T00:23:19.582Z,8.63
2023-04-22T00:26:22.542Z,8.45
2023-04-22T00:29:26.155Z,8.40
2023-04-22T00:32:28.808Z,8.35
2023-04-22T00:35:31.621Z,8.35
2023-04-22T00:38:34.393Z,8.34
2023-04-22T00:41:37.748Z,8.31
2023-04-22T00:44:41.400Z,8.19
2023-04-22T00:47:46.031Z,7.95
2023-04-22T00:50:48.734Z,7.86
2023-04-22T00:53:51.997Z,7.90
2023-04-22T00:56:55.530Z,7.81
2023-04-22T00:59:58.394Z,7.71
2023-04-22T01:03:03.608Z,7.77
2023-04-22T01:06:07.115Z,7.60
2023-04-22T01:09:09.756Z,7.58
2023-04-22T01:12:12.427Z,7.63
2023-04-22T01:15:16.132Z,7.57
2023-04-22T01:18:19.262Z,7.61
2023-04-22T01:21:22.019Z,7.44
2023-04-22T01:24:24.827Z,7.39
2023-04-22T01:27:27.556Z,7.36
2023-04-22T01:30:30.336Z,7.36
2023-04-22T01:33:33.018Z,7.37
2023-04-22T01:36:35.765Z,7.38
2023-04-22T01:39:38.985Z,7.34
2023-04-22T01:42:42.125Z,7.30
2023-04-22T01:45:44.943Z,7.25
2023-04-22T01:48:51.643Z,7.22
2023-04-22T01:51:54.428Z,7.13
2023-04-22T01:54:58.518Z,7.07
2023-04-22T01:58:01.449Z,7.04
2023-04-22T02:01:04.631Z,7.13
2023-04-22T02:04:07.426Z,7.17
2023-04-22T02:07:10.027Z,7.12
2023-04-22T02:10:14.218Z,7.02
2023-04-22T02:13:17.051Z,7.02
2023-04-22T02:16:19.839Z,7.10
2023-04-22T02:19:22.557Z,7.24
2023-04-22T02:22:25.413Z,7.27
2023-04-22T02:25:28.953Z,7.24
2023-04-22T02:28:32.358Z,7.20
2023-04-22T02:31:35.243Z,7.30
2023-04-22T02:34:38.260Z,7.35
2023-04-22T02:37:40.965Z,7.34
2023-04-22T02:40:43.647Z,7.33
2023-04-22T02:43:47.898Z,7.17
2023-04-22T02:46:50.953Z,7.10
2023-04-22T02:49:54.009Z,6.99
2023-04-22T02:52:56.723Z,6.89
2023-04-22T02:56:00.223Z,6.98
2023-04-22T02:59:03.186Z,6.77
2023-04-22T03:02:06.983Z,7.04
2023-04-22T03:05:29.519Z,7.01
2023-04-22T03:08:32.400Z,6.89
2023-04-22T03:11:35.098Z,6.71
2023-04-22T03:14:40.863Z,6.59
2023-04-22T03:17:43.954Z,6.58
2023-04-22T03:20:50.070Z,6.56
2023-04-22T03:23:53.961Z,6.58
2023-04-22T03:26:57.305Z,6.67
2023-04-22T03:30:00.124Z,6.73
2023-04-22T03:33:03.195Z,6.58
2023-04-22T03:36:28.932Z,6.37
2023-04-22T03:39:32.914Z,6.38
2023-04-22T03:42:35.845Z,6.43
2023-04-22T03:45:38.894Z,6.45
2023-04-22T03:48:55.863Z,6.43
2023-04-22T03:52:09.069Z,6.66
2023-04-22T03:55:17.535Z,6.83
2023-04-22T03:58:22.429Z,6.87
2023-04-22T04:01:27.114Z,6.80
2023-04-22T04:04:35.201Z,6.75
2023-04-22T04:07:38.318Z,6.78
2023-04-22T04:10:42.591Z,6.80
2023-04-22T04:13:45.617Z,6.79
2023-04-22T04:16:59.671Z,6.82
2023-04-22T04:20:07.402Z,6.71
2023-04-22T04:23:12.160Z,6.79
2023-04-22T04:26:15.456Z,6.84
2023-04-22T04:29:22.061Z,7.44
2023-04-22T04:32:37.164Z,9.59
2023-04-22T04:35:43.900Z,10.95
2023-04-22T04:38:52.474Z,11.90
2023-04-22T04:41:59.063Z,12.22
2023-04-22T04:45:05.478Z,12.44
2023-04-22T04:48:09.361Z,11.59
2023-04-22T04:51:18.228Z,10.57
2023-04-22T04:54:30.700Z,10.30
2023-04-22T04:57:38.254Z,10.13
2023-04-22T05:00:41.831Z,10.02
2023-04-22T05:03:46.185Z,10.11
2023-04-22T05:06:51.486Z,10.27
2023-04-22T05:09:55.132Z,10.45
2023-04-22T05:12:59.108Z,10.61
2023-04-22T05:16:02.573Z,10.85
2023-04-22T05:19:05.693Z,11.03
2023-04-22T05:22:09.552Z,11.09
2023-04-22T05:25:12.543Z,10.97
2023-04-22T05:28:21.243Z,11.11
2023-04-22T05:31:29.498Z,11.01
2023-04-22T05:34:33.780Z,10.92
2023-04-22T05:37:37.358Z,10.99
2023-04-22T05:40:40.966Z,11.10
2023-04-22T05:43:46.745Z,11.17
2023-04-22T05:46:56.936Z,11.40
2023-04-22T05:50:03.051Z,11.54
2023-04-22T05:53:21.734Z,11.81
2023-04-22T05:56:24.639Z,12.08
2023-04-22T05:59:27.571Z,12.41
2023-04-22T06:02:31.375Z,12.87
2023-04-22T06:05:34.397Z,13.27
2023-04-22T06:08:37.199Z,13.69
2023-04-22T06:11:41.185Z,13.85
2023-04-22T06:14:44.437Z,14.15
2023-04-22T06:17:49.049Z,14.23
2023-04-22T06:20:52.417Z,14.48
2023-04-22T06:23:55.364Z,14.68
2023-04-22T06:26:58.800Z,14.95
2023-04-22T06:30:06.136Z,15.07
2023-04-22T06:33:09.060Z,15.37
2023-04-22T06:36:11.966Z,15.48
2023-04-22T06:39:14.880Z,15.81
2023-04-22T06:42:45.907Z,15.95
2023-04-22T06:46:11.757Z,16.13
2023-04-22T06:49:45.304Z,15.68
2023-04-22T06:53:03.942Z,15.42
2023-04-22T06:56:07.203Z,15.49
2023-04-22T06:59:10.119Z,15.37
2023-04-22T07:02:13.306Z,15.51
2023-04-22T07:05:16.791Z,16.02
2023-04-22T07:08:20.180Z,16.35
2023-04-22T07:11:23.015Z,16.23
2023-04-22T07:14:45.584Z,15.78
2023-04-22T07:17:48.379Z,16.24
2023-04-22T07:20:51.366Z,16.78
2023-04-22T07:23:54.164Z,16.44
2023-04-22T07:26:57.922Z,16.85
2023-04-22T07:30:00.764Z,16.66
2023-04-22T07:33:04.317Z,16.98
2023-04-22T07:36:07.220Z,16.54
2023-04-22T07:39:10.225Z,16.70
2023-04-22T07:42:13.313Z,16.54
2023-04-22T07:45:16.089Z,16.33
2023-04-22T07:48:18.754Z,16.74
2023-04-22T07:51:21.876Z,16.83
2023-04-22T07:54:24.973Z,17.05
2023-04-22T07:57:27.856Z,17.43
2023-04-22T08:00:31.046Z,17.34
2023-04-22T08:03:34.031Z,17.41
2023-04-22T08:06:37.031Z,17.07
2023-04-22T08:09:40.008Z,17.05
2023-04-22T08:12:43.239Z,17.48
2023-04-22T08:15:46.217Z,18.05
2023-04-22T08:18:49.388Z,18.20
2023-04-22T08:21:52.257Z,18.20
2023-04-22T08:24:55.299Z,18.09
2023-04-22T08:27:58.288Z,18.70
2023-04-22T08:31:01.054Z,17.88
2023-04-22T08:34:04.218Z,18.05
2023-04-22T08:37:07.055Z,18.72
2023-04-22T08:40:10.097Z,18.60
2023-04-22T08:43:13.116Z,18.57
2023-04-22T08:46:16.138Z,18.29
2023-04-22T08:49:19.764Z,18.46
2023-04-22T08:52:22.677Z,18.60
2023-04-22T08:55:26.362Z,19.01
2023-04-22T08:58:29.401Z,19.02
2023-04-22T09:01:32.743Z,18.84
2023-04-22T09:04:35.766Z,18.99
2023-04-22T09:07:38.966Z,19.09
2023-04-22T09:10:41.821Z,18.94
2023-04-22T09:13:44.681Z,19.01
2023-04-22T09:16:48.748Z,18.83
2023-04-22T09:19:59.867Z,19.17
2023-04-22T09:23:05.468Z,19.30
2023-04-22T09:26:08.840Z,19.75
2023-04-22T09:29:15.565Z,19.66
2023-04-22T09:32:18.561Z,19.65
2023-04-22T09:35:31.757Z,19.96
2023-04-22T09:38:34.854Z,20.08
2023-04-22T09:41:39.532Z,20.28
2023-04-22T09:44:42.587Z,19.87
2023-04-22T09:47:47.230Z,19.88
2023-04-22T09:50:51.750Z,20.59
2023-04-22T09:54:06.775Z,20.58
2023-04-22T09:57:15.701Z,20.21
2023-04-22T10:00:19.122Z,20.05
2023-04-22T10:03:22.184Z,20.17
2023-04-22T10:06:24.842Z,20.47
2023-04-22T10:09:27.682Z,21.01
2023-04-22T10:12:35.778Z,20.99
2023-04-22T10:15:43.627Z,20.57
2023-04-22T10:18:46.694Z,20.70
2023-04-22T10:21:53.404Z,20.67
2023-04-22T10:24:58.151Z,20.35
2023-04-22T10:28:06.072Z,20.80
2023-04-22T10:31:25.096Z,20.42
2023-04-22T10:34:30.683Z,20.59
2023-04-22T10:37:34.349Z,20.71
2023-04-22T10:41:00.554Z,21.10
2023-04-22T10:44:07.409Z,21.62
2023-04-22T10:47:10.256Z,21.48
2023-04-22T10:50:27.194Z,21.32
2023-04-22T10:53:36.885Z,21.53
2023-04-22T10:57:05.246Z,21.03
2023-04-22T11:00:38.205Z,20.75
2023-04-22T11:03:49.358Z,20.55
2023-04-22T11:07:14.348Z,20.40
2023-04-22T11:10:32.384Z,20.07
2023-04-22T11:13:35.522Z,19.97
2023-04-22T11:16:38.693Z,19.74
2023-04-22T11:19:41.527Z,19.75
2023-04-22T11:22:46.781Z,19.95
2023-04-22T11:26:01.336Z,20.12
2023-04-22T11:29:04.182Z,19.86
2023-04-22T11:32:06.820Z,20.65
2023-04-22T11:35:11.591Z,20.11
2023-04-22T11:38:14.810Z,19.98
2023-04-22T11:41:23.461Z,20.07
2023-04-22T11:44:26.802Z,20.24
2023-04-22T11:47:30.974Z,20.19
2023-04-22T11:50:39.342Z,20.30
2023-04-22T11:53:50.904Z,20.24
2023-04-22T11:56:53.595Z,20.11
2023-04-22T11:59:59.745Z,20.45
2023-04-22T12:03:08.680Z,20.49
2023-04-22T12:06:11.876Z,21.53
2023-04-22T12:09:14.774Z,22.24
2023-04-22T12:12:17.598Z,22.03
2023-04-22T12:15:20.445Z,21.85
2023-04-22T12:18:38.376Z,22.23
2023-04-22T12:21:42.416Z,22.36
2023-04-22T12:24:46.815Z,22.87
2023-04-22T12:27:49.694Z,23.11
2023-04-22T12:30:52.458Z,23.13
2023-04-22T12:33:56.338Z,23.09
2023-04-22T12:36:59.544Z,22.12
2023-04-22T12:40:02.661Z,21.87
2023-04-22T12:43:06.483Z,21.63
2023-04-22T12:46:09.988Z,21.38
2023-04-22T12:49:14.888Z,21.10
2023-04-22T12:52:17.789Z,20.89
2023-04-22T12:55:21.376Z,20.69
2023-04-22T12:58:24.879Z,20.05
2023-04-22T13:01:27.864Z,20.13
2023-04-22T13:04:30.728Z,20.23
2023-04-22T13:07:33.639Z,20.27
2023-04-22T13:10:36.603Z,20.41
2023-04-22T13:13:39.384Z,20.24
2023-04-22T13:16:42.324Z,20.18
2023-04-22T13:19:47.946Z,20.12
2023-04-22T13:22:53.094Z,19.90
2023-04-22T13:25:56.846Z,20.66
2023-04-22T13:29:02.019Z,21.56
2023-04-22T13:32:05.850Z,21.65
2023-04-22T13:35:09.796Z,22.07
2023-04-22T13:38:12.599Z,22.18
2023-04-22T13:41:15.656Z,22.31
2023-04-22T13:44:18.546Z,21.98
2023-04-22T13:47:21.404Z,22.31
2023-04-22T13:50:24.371Z,22.34
2023-04-22T13:53:27.301Z,22.25
2023-04-22T13:56:30.249Z,22.84
2023-04-22T13:59:36.098Z,22.50
2023-04-22T14:02:39.328Z,22.74
2023-04-22T14:05:42.081Z,22.91
2023-04-22T14:08:45.114Z,22.99
2023-04-22T14:11:47.940Z,22.68
2023-04-22T14:14:50.697Z,22.52
2023-04-22T14:17:54.270Z,22.39
2023-04-22T14:20:57.494Z,21.99
2023-04-22T14:24:00.647Z,21.58
2023-04-22T14:27:03.603Z,21.42
2023-04-22T14:30:08.700Z,21.11
2023-04-22T14:33:11.621Z,21.16
2023-04-22T14:36:14.484Z,21.07
2023-04-22T14:39:17.395Z,20.89
2023-04-22T14:42:20.719Z,20.81
2023-04-22T14:45:24.310Z,20.81
2023-04-22T14:48:31.347Z,20.80
2023-04-22T14:51:35.337Z,20.89
2023-04-22T14:54:38.091Z,20.92
2023-04-22T14:57:41.078Z,20.84
2023-04-22T15:00:43.917Z,20.79
2023-04-22T15:03:47.059Z,20.67
2023-04-22T15:06:49.991Z,20.69
2023-04-22T15:09:53.668Z,20.56
2023-04-22T15:12:56.698Z,20.44
2023-04-22T15:15:59.685Z,20.42
2023-04-22T15:19:02.438Z,20.44
2023-04-22T15:22:05.622Z,20.59
2023-04-22T15:25:10.364Z,20.33
2023-04-22T15:28:16.029Z,20.66
2023-04-22T15:31:20.916Z,20.39
2023-04-22T15:34:24.412Z,20.16
2023-04-22T15:37:27.494Z,20.11
2023-04-22T15:40:30.285Z,19.90
2023-04-22T15:43:33.334Z,19.73
2023-04-22T15:46:36.247Z,19.51
2023-04-22T15:49:39.571Z,19.37
2023-04-22T15:52:42.583Z,19.20
2023-04-22T15:55:46.851Z,19.04
2023-04-22T15:58:51.620Z,18.92
2023-04-22T16:01:54.881Z,19.33
2023-04-22T16:04:57.956Z,19.37
2023-04-22T16:08:01.480Z,19.16
2023-04-22T16:11:04.976Z,19.45
2023-04-22T16:14:07.868Z,19.47
2023-04-22T16:17:10.627Z,19.55
2023-04-22T16:20:13.298Z,19.60
2023-04-22T16:23:16.418Z,19.72
2023-04-22T16:26:19.168Z,19.68
2023-04-22T16:29:21.977Z,19.70
2023-04-22T16:32:25.161Z,19.66
2023-04-22T16:35:28.757Z,19.64
2023-04-22T16:38:34.223Z,19.37
2023-04-22T16:41:37.118Z,19.34
2023-04-22T16:44:39.865Z,19.28
2023-04-22T16:47:42.918Z,19.07
2023-04-22T16:50:45.637Z,18.85
2023-04-22T16:53:51.481Z,18.60
2023-04-22T16:56:54.262Z,18.52
2023-04-22T16:59:57.237Z,18.31
2023-04-22T17:03:01.179Z,18.04
2023-04-22T17:06:04.295Z,17.88
2023-04-22T17:09:07.568Z,17.65
2023-04-22T17:12:10.429Z,17.31
2023-04-22T17:15:13.285Z,17.18
2023-04-22T17:18:16.420Z,16.86
2023-04-22T17:21:19.422Z,16.76
2023-04-22T17:24:22.580Z,16.59
2023-04-22T17:27:25.329Z,16.47
2023-04-22T17:30:28.214Z,16.39
2023-04-22T17:33:31.736Z,16.11
2023-04-22T17:36:37.231Z,16.08
2023-04-22T17:39:40.863Z,15.96
2023-04-22T17:42:46.204Z,15.78
2023-04-22T17:45:49.494Z,15.60
2023-04-22T17:48:52.223Z,15.44
2023-04-22T17:51:55.133Z,15.26
2023-04-22T17:54:59.829Z,15.03
2023-04-22T17:58:04.285Z,14.87
2023-04-22T18:01:07.854Z,14.77
2023-04-22T18:04:11.009Z,14.53
2023-04-22T18:07:14.159Z,14.44
2023-04-22T18:10:17.148Z,14.24
2023-04-22T18:13:20.614Z,14.19
2023-04-22T18:16:23.352Z,14.12
2023-04-22T18:19:26.369Z,14.07
2023-04-22T18:22:30.509Z,13.79
2023-04-22T18:25:33.406Z,13.66
2023-04-22T18:28:37.123Z,13.53
2023-04-22T18:31:42.781Z,13.43
2023-04-22T18:34:46.754Z,13.30
2023-04-22T18:37:49.524Z,13.12
2023-04-22T18:40:52.267Z,13.12
2023-04-22T18:43:55.115Z,12.99
2023-04-22T18:46:57.912Z,12.97
2023-04-22T18:50:00.950Z,12.80
2023-04-22T18:53:03.784Z,12.75
2023-04-22T18:56:07.317Z,12.61
2023-04-22T18:59:10.218Z,12.65
2023-04-22T19:02:13.917Z,12.64
2023-04-22T19:05:19.176Z,12.55
2023-04-22T19:08:21.912Z,12.48
2023-04-22T19:11:25.274Z,12.46
2023-04-22T19:14:28.385Z,12.38
2023-04-22T19:17:31.322Z,12.21
2023-04-22T19:20:34.075Z,12.11
2023-04-22T19:23:37.244Z,12.05
2023-04-22T19:26:40.209Z,12.00
2023-04-22T19:29:43.583Z,11.82
2023-04-22T19:32:46.540Z,11.78
2023-04-22T19:35:49.248Z,11.68
2023-04-22T19:38:52.276Z,11.61
2023-04-22T19:41:55.109Z,11.57
2023-04-22T19:44:59.274Z,11.47
2023-04-22T19:48:02.419Z,11.47
2023-04-22T19:51:06.612Z,11.53
2023-04-22T19:54:11.171Z,11.58
2023-04-22T19:57:14.396Z,11.48
2023-04-22T20:00:18.195Z,11.37
2023-04-22T20:03:21.613Z,11.27
2023-04-22T20:06:24.629Z,11.23
2023-04-22T20:09:27.862Z,11.16
2023-04-22T20:12:31.251Z,11.19
2023-04-22T20:15:34.134Z,11.05
2023-04-22T20:18:37.680Z,10.99
2023-04-22T20:21:40.682Z,10.94
2023-04-22T20:24:43.817Z,10.97
2023-04-22T20:27:47.365Z,10.77
2023-04-22T20:30:50.380Z,11.10
2023-04-22T20:33:53.277Z,11.06
2023-04-22T20:36:56.433Z,10.92
2023-04-22T20:40:02.130Z,10.81
2023-04-22T20:43:05.142Z,10.70
2023-04-22T20:46:08.082Z,10.61
2023-04-22T20:49:10.842Z,10.63
2023-04-22T20:52:13.659Z,10.52
2023-04-22T20:55:17.296Z,10.53
2023-04-22T20:58:22.573Z,10.44
2023-04-22T21:01:29.585Z,10.34
2023-04-22T21:04:33.696Z,10.28
2023-04-22T21:07:38.306Z,10.15
2023-04-22T21:10:41.526Z,10.13
2023-04-22T21:13:45.035Z,10.03
2023-04-22T21:16:54.299Z,9.93
2023-04-22T21:19:58.018Z,10.04
2023-04-22T21:23:01.781Z,10.03
2023-04-22T21:26:05.741Z,10.03
2023-04-22T21:29:08.876Z,10.06
2023-04-22T21:32:11.940Z,9.95
2023-04-22T21:35:15.094Z,9.88
2023-04-22T21:38:17.838Z,9.81
2023-04-22T21:41:20.686Z,9.83
2023-04-22T21:44:23.511Z,9.84
2023-04-22T21:47:26.426Z,9.65
2023-04-22T21:50:30.756Z,9.65
2023-04-22T21:53:33.753Z,9.58
2023-04-22T21:56:36.621Z,9.59
2023-04-22T21:59:39.572Z,9.61
2023-04-22T22:02:43.521Z,9.50
2023-04-22T22:05:46.375Z,9.50
2023-04-22T22:08:49.028Z,9.52
2023-04-22T22:11:51.789Z,9.47
2023-04-22T22:14:54.574Z,9.40
2023-04-22T22:17:57.870Z,9.45
2023-04-22T22:21:00.822Z,9.48
2023-04-22T22:24:04.049Z,9.56
2023-04-22T22:27:07.509Z,9.39
2023-04-22T22:30:10.276Z,9.43
2023-04-22T22:33:13.086Z,9.36
2023-04-22T22:36:16.538Z,9.40
2023-04-22T22:39:19.407Z,9.28
2023-04-22T22:42:22.180Z,9.26
2023-04-22T22:45:24.814Z,9.13
2023-04-22T22:48:27.621Z,9.12
2023-04-22T22:51:30.229Z,9.19
2023-04-22T22:54:37.919Z,9.21
2023-04-22T22:57:40.618Z,9.13
2023-04-22T23:00:43.422Z,9.04
2023-04-22T23:03:47.504Z,8.85
2023-04-22T23:06:50.452Z,8.68
2023-04-22T23:09:53.235Z,8.64
2023-04-22T23:12:55.894Z,8.53
2023-04-22T23:15:59.783Z,8.62
2023-04-22T23:19:03.132Z,8.68
2023-04-22T23:22:07.195Z,8.66
2023-04-22T23:25:10.814Z,8.64
2023-04-22T23:28:14.184Z,8.73
2023-04-22T23:31:17.563Z,8.76
2023-04-22T23:34:23.171Z,8.72
2023-04-22T23:37:28.670Z,8.62
2023-04-22T23:40:31.318Z,8.64
2023-04-22T23:43:34.037Z,8.70
2023-04-22T23:46:36.861Z,8.65
2023-04-22T23:49:39.543Z,8.65
2023-04-22T23:52:44.636Z,8.64
2023-04-22T23:55:47.956Z,8.43
2023-04-22T23:58:51.506Z,8.33
